<?xml version='1.0' encoding='UTF-8'?>
<gpx xmlns="http://www.topografix.com/GPX/1/1" creator="www.balnam.be" version="1.1" xmlns:xsi="http://www.w3.org/2001/XMLSchema-instance" xsi:schemaLocation="http://www.topografix.com/GPX/1/1 http://www.topografix.com/GPX/1/1/gpx.xsd">
<trk>
<name>brmma1</name>
<cmt>r</cmt>
<desc>Mont-Saint-André Chemin n°1 Rue de la Montagne / Rue de l'Amérique</desc>
<link href="https://chemins.be/montsaintandre/chemin/1"/><trkseg>
<trkpt lat="50.652440" lon="4.869256"><time>2026-05-09T17:36:58Z</time></trkpt>
<trkpt lat="50.653404" lon="4.870765"><time>2026-05-09T17:46:58Z</time></trkpt>
</trkseg></trk>
<trk>
<name>brmma1</name>
<cmt>v</cmt>
<desc>Mont-Saint-André Chemin n°1 Rue de la Montagne / Rue de l'Amérique</desc>
<link href="https://chemins.be/montsaintandre/chemin/1"/><trkseg>
<trkpt lat="50.653404" lon="4.870765"><time>2026-05-09T17:46:58Z</time></trkpt>
<trkpt lat="50.654029" lon="4.871790"><time>2026-05-09T17:56:58Z</time></trkpt>
<trkpt lat="50.655382" lon="4.874831"><time>2026-05-09T18:06:58Z</time></trkpt>
<trkpt lat="50.658250" lon="4.880986"><time>2026-05-09T18:16:58Z</time></trkpt>
<trkpt lat="50.661126" lon="4.887268"><time>2026-05-09T18:26:58Z</time></trkpt>
<trkpt lat="50.661846" lon="4.889299"><time>2026-05-09T18:36:58Z</time></trkpt>
<trkpt lat="50.663472" lon="4.891467"><time>2026-05-09T18:46:58Z</time></trkpt>
</trkseg>
</trk>
<trk>
<name>brmma10</name>
<cmt>v</cmt>
<desc>Mont-Saint-André Chemin n°10 </desc>
<link href="https://chemins.be/montsaintandre/chemin/10"/><trkseg>
<trkpt lat="50.673265" lon="4.880200"><time>2026-05-09T17:36:58Z</time></trkpt>
<trkpt lat="50.671808" lon="4.883607"><time>2026-05-09T17:46:58Z</time></trkpt>
<trkpt lat="50.671601" lon="4.884208"><time>2026-05-09T17:56:58Z</time></trkpt>
<trkpt lat="50.670323" lon="4.885178"><time>2026-05-09T18:06:58Z</time></trkpt>
<trkpt lat="50.666857" lon="4.887221"><time>2026-05-09T18:16:58Z</time></trkpt>
<trkpt lat="50.666101" lon="4.888053"><time>2026-05-09T18:26:58Z</time></trkpt>
<trkpt lat="50.664420" lon="4.890843"><time>2026-05-09T18:36:58Z</time></trkpt>
<trkpt lat="50.663577" lon="4.891504"><time>2026-05-09T18:46:58Z</time></trkpt>
</trkseg>
</trk>
<trk>
<name>brmma11</name>
<cmt>v</cmt>
<desc>Mont-Saint-André Chemin n°11 Rue Croix Bouvier</desc>
<link href="https://chemins.be/montsaintandre/chemin/11"/><trkseg>
<trkpt lat="50.670609" lon="4.877555"><time>2026-05-09T17:36:58Z</time></trkpt>
<trkpt lat="50.670734" lon="4.877627"><time>2026-05-09T17:46:58Z</time></trkpt>
<trkpt lat="50.671397" lon="4.878186"><time>2026-05-09T17:56:58Z</time></trkpt>
<trkpt lat="50.672373" lon="4.879059"><time>2026-05-09T18:06:58Z</time></trkpt>
<trkpt lat="50.672660" lon="4.879388"><time>2026-05-09T18:16:58Z</time></trkpt>
<trkpt lat="50.673267" lon="4.880243"><time>2026-05-09T18:26:58Z</time></trkpt>
</trkseg>
</trk>
<trk>
<name>brmma13</name>
<cmt>v</cmt>
<desc>Mont-Saint-André Chemin n°13 Rue de l'Abyme</desc>
<link href="https://chemins.be/montsaintandre/chemin/13"/><trkseg>
<trkpt lat="50.664838" lon="4.867292"><time>2026-05-09T17:36:58Z</time></trkpt>
<trkpt lat="50.664740" lon="4.866942"><time>2026-05-09T17:46:58Z</time></trkpt>
<trkpt lat="50.664473" lon="4.864997"><time>2026-05-09T17:56:58Z</time></trkpt>
<trkpt lat="50.664439" lon="4.864678"><time>2026-05-09T18:06:58Z</time></trkpt>
<trkpt lat="50.664364" lon="4.864260"><time>2026-05-09T18:16:58Z</time></trkpt>
<trkpt lat="50.664189" lon="4.863570"><time>2026-05-09T18:26:58Z</time></trkpt>
<trkpt lat="50.663952" lon="4.862819"><time>2026-05-09T18:36:58Z</time></trkpt>
<trkpt lat="50.663838" lon="4.862609"><time>2026-05-09T18:46:58Z</time></trkpt>
<trkpt lat="50.663713" lon="4.862433"><time>2026-05-09T18:56:58Z</time></trkpt>
<trkpt lat="50.663202" lon="4.861898"><time>2026-05-09T19:06:58Z</time></trkpt>
<trkpt lat="50.662705" lon="4.861350"><time>2026-05-09T19:16:58Z</time></trkpt>
<trkpt lat="50.662453" lon="4.860958"><time>2026-05-09T19:26:58Z</time></trkpt>
<trkpt lat="50.661543" lon="4.858780"><time>2026-05-09T19:36:58Z</time></trkpt>
<trkpt lat="50.661136" lon="4.857862"><time>2026-05-09T19:46:58Z</time></trkpt>
<trkpt lat="50.660826" lon="4.857367"><time>2026-05-09T19:56:58Z</time></trkpt>
</trkseg>
</trk>
<trk>
<name>brmma14</name>
<cmt>v</cmt>
<desc>Mont-Saint-André Chemin n°14 Rue de l'Amérique</desc>
<link href="https://chemins.be/montsaintandre/chemin/14"/><trkseg>
<trkpt lat="50.654065" lon="4.865568"><time>2026-05-09T17:36:58Z</time></trkpt>
<trkpt lat="50.654623" lon="4.868319"><time>2026-05-09T17:46:58Z</time></trkpt>
<trkpt lat="50.655312" lon="4.870691"><time>2026-05-09T17:56:58Z</time></trkpt>
<trkpt lat="50.655682" lon="4.871893"><time>2026-05-09T18:06:58Z</time></trkpt>
<trkpt lat="50.656539" lon="4.874145"><time>2026-05-09T18:16:58Z</time></trkpt>
</trkseg></trk>
<trk>
<name>brmma14</name>
<cmt>d</cmt>
<desc>Mont-Saint-André Chemin n°14 Rue de l'Amérique</desc>
<link href="https://chemins.be/montsaintandre/chemin/14"/><trkseg>
<trkpt lat="50.656539" lon="4.874145"><time>2026-05-09T18:16:58Z</time></trkpt>
<trkpt lat="50.657147" lon="4.875743"><time>2026-05-09T18:26:58Z</time></trkpt>
</trkseg></trk>
<trk>
<name>brmma14</name>
<cmt>s</cmt>
<desc>Mont-Saint-André Chemin n°14 Rue de l'Amérique</desc>
<link href="https://chemins.be/montsaintandre/chemin/14"/><trkseg>
<trkpt lat="50.657147" lon="4.875743"><time>2026-05-09T18:26:58Z</time></trkpt>
<trkpt lat="50.658627" lon="4.879588"><time>2026-05-09T18:36:58Z</time></trkpt>
<trkpt lat="50.658170" lon="4.881065"><time>2026-05-09T18:46:58Z</time></trkpt>
</trkseg>
</trk>
<trk>
<name>brmma15</name>
<cmt>r</cmt>
<desc>Mont-Saint-André Chemin n°15 Rue du Gestiaux</desc>
<link href="https://chemins.be/montsaintandre/chemin/15"/><trkseg>
<trkpt lat="50.654322" lon="4.853007"><time>2026-05-09T17:36:58Z</time></trkpt>
<trkpt lat="50.654558" lon="4.851905"><time>2026-05-09T17:46:58Z</time></trkpt>
</trkseg></trk>
<trk>
<name>brmma15</name>
<cmt>v</cmt>
<desc>Mont-Saint-André Chemin n°15 Rue du Gestiaux</desc>
<link href="https://chemins.be/montsaintandre/chemin/15"/><trkseg>
<trkpt lat="50.654558" lon="4.851905"><time>2026-05-09T17:46:58Z</time></trkpt>
<trkpt lat="50.654897" lon="4.849884"><time>2026-05-09T17:56:58Z</time></trkpt>
<trkpt lat="50.655492" lon="4.847372"><time>2026-05-09T18:06:58Z</time></trkpt>
</trkseg></trk>
<trk>
<name>brmma15</name>
<cmt>s</cmt>
<desc>Mont-Saint-André Chemin n°15 Rue du Gestiaux</desc>
<link href="https://chemins.be/montsaintandre/chemin/15"/><trkseg>
<trkpt lat="50.655492" lon="4.847372"><time>2026-05-09T18:06:58Z</time></trkpt>
<trkpt lat="50.655546" lon="4.846183"><time>2026-05-09T18:16:58Z</time></trkpt>
<trkpt lat="50.656417" lon="4.842378"><time>2026-05-09T18:26:58Z</time></trkpt>
<trkpt lat="50.656418" lon="4.839835"><time>2026-05-09T18:36:58Z</time></trkpt>
<trkpt lat="50.656412" lon="4.839390"><time>2026-05-09T18:46:58Z</time></trkpt>
<trkpt lat="50.656789" lon="4.838946"><time>2026-05-09T18:56:58Z</time></trkpt>
<trkpt lat="50.656272" lon="4.837981"><time>2026-05-09T19:06:58Z</time></trkpt>
<trkpt lat="50.655483" lon="4.834784"><time>2026-05-09T19:16:58Z</time></trkpt>
</trkseg>
</trk>
<trk>
<name>brmma16</name>
<cmt>v</cmt>
<desc>Mont-Saint-André Chemin n°16 </desc>
<link href="https://chemins.be/montsaintandre/chemin/16"/><trkseg>
<trkpt lat="50.661177" lon="4.887253"><time>2026-05-09T17:36:58Z</time></trkpt>
<trkpt lat="50.666825" lon="4.887219"><time>2026-05-09T17:46:58Z</time></trkpt>
</trkseg>
</trk>
<trk>
<name>brmma17</name>
<cmt>v</cmt>
<desc>Mont-Saint-André Chemin n°17 </desc>
<link href="https://chemins.be/montsaintandre/chemin/17"/><trkseg>
<trkpt lat="50.664849" lon="4.853239"><time>2026-05-09T17:36:58Z</time></trkpt>
<trkpt lat="50.664453" lon="4.852768"><time>2026-05-09T17:46:58Z</time></trkpt>
</trkseg></trk>
<trk>
<name>brmma17</name>
<cmt>s</cmt>
<desc>Mont-Saint-André Chemin n°17 </desc>
<link href="https://chemins.be/montsaintandre/chemin/17"/><trkseg>
<trkpt lat="50.664453" lon="4.852768"><time>2026-05-09T17:46:58Z</time></trkpt>
<trkpt lat="50.663963" lon="4.852186"><time>2026-05-09T17:56:58Z</time></trkpt>
<trkpt lat="50.663013" lon="4.851861"><time>2026-05-09T18:06:58Z</time></trkpt>
<trkpt lat="50.662206" lon="4.851585"><time>2026-05-09T18:16:58Z</time></trkpt>
</trkseg>
</trk>
<trk>
<name>brmma17bis</name>
<cmt>v</cmt>
<desc>Mont-Saint-André Chemin n°17bis </desc>
<link href="https://chemins.be/montsaintandre/chemin/17bis"/><trkseg>
<trkpt lat="50.664455" lon="4.852784"><time>2026-05-09T17:36:58Z</time></trkpt>
<trkpt lat="50.664920" lon="4.851672"><time>2026-05-09T17:46:58Z</time></trkpt>
</trkseg>
</trk>
<trk>
<name>brmma18</name>
<cmt>v</cmt>
<desc>Mont-Saint-André Sentier n°18 </desc>
<link href="https://chemins.be/montsaintandre/sentier/18"/><trkseg>
<trkpt lat="50.654039" lon="4.871743"><time>2026-05-09T17:36:58Z</time></trkpt>
<trkpt lat="50.655306" lon="4.870619"><time>2026-05-09T17:46:58Z</time></trkpt>
<trkpt lat="50.657210" lon="4.870099"><time>2026-05-09T17:56:58Z</time></trkpt>
<trkpt lat="50.658431" lon="4.869956"><time>2026-05-09T18:06:58Z</time></trkpt>
<trkpt lat="50.658898" lon="4.870064"><time>2026-05-09T18:16:58Z</time></trkpt>
<trkpt lat="50.659110" lon="4.870253"><time>2026-05-09T18:26:58Z</time></trkpt>
<trkpt lat="50.659163" lon="4.870134"><time>2026-05-09T18:36:58Z</time></trkpt>
<trkpt lat="50.659273" lon="4.869884"><time>2026-05-09T18:46:58Z</time></trkpt>
</trkseg></trk>
<trk>
<name>brmma18</name>
<cmt>d</cmt>
<desc>Mont-Saint-André Sentier n°18 </desc>
<link href="https://chemins.be/montsaintandre/sentier/18"/><trkseg>
<trkpt lat="50.659273" lon="4.869884"><time>2026-05-09T18:46:58Z</time></trkpt>
<trkpt lat="50.660065" lon="4.869482"><time>2026-05-09T18:56:58Z</time></trkpt>
</trkseg></trk>
<trk>
<name>brmma18</name>
<cmt>b</cmt>
<desc>Mont-Saint-André Sentier n°18 </desc>
<link href="https://chemins.be/montsaintandre/sentier/18"/><trkseg>
<trkpt lat="50.660065" lon="4.869482"><time>2026-05-09T18:56:58Z</time></trkpt>
<trkpt lat="50.660801" lon="4.869109"><time>2026-05-09T19:06:58Z</time></trkpt>
</trkseg>
</trk>
<trk>
<name>brmma19</name>
<cmt>s</cmt>
<desc>Mont-Saint-André Sentier n°19 </desc>
<link href="https://chemins.be/montsaintandre/sentier/19"/><trkseg>
<trkpt lat="50.669800" lon="4.875549"><time>2026-05-09T17:36:58Z</time></trkpt>
<trkpt lat="50.668642" lon="4.876158"><time>2026-05-09T17:46:58Z</time></trkpt>
<trkpt lat="50.667789" lon="4.876893"><time>2026-05-09T17:56:58Z</time></trkpt>
</trkseg></trk>
<trk>
<name>brmma19</name>
<cmt>q</cmt>
<desc>Mont-Saint-André Sentier n°19 </desc>
<link href="https://chemins.be/montsaintandre/sentier/19"/><trkseg>
<trkpt lat="50.667789" lon="4.876893"><time>2026-05-09T17:56:58Z</time></trkpt>
<trkpt lat="50.667423" lon="4.877242"><time>2026-05-09T18:06:58Z</time></trkpt>
<trkpt lat="50.667294" lon="4.877452"><time>2026-05-09T18:16:58Z</time></trkpt>
<trkpt lat="50.667119" lon="4.877583"><time>2026-05-09T18:26:58Z</time></trkpt>
</trkseg></trk>
<trk>
<name>brmma19</name>
<cmt>v</cmt>
<desc>Mont-Saint-André Sentier n°19 </desc>
<link href="https://chemins.be/montsaintandre/sentier/19"/><trkseg>
<trkpt lat="50.667119" lon="4.877583"><time>2026-05-09T18:26:58Z</time></trkpt>
<trkpt lat="50.666993" lon="4.877761"><time>2026-05-09T18:36:58Z</time></trkpt>
</trkseg></trk>
<trk>
<name>brmma19</name>
<cmt>d</cmt>
<desc>Mont-Saint-André Sentier n°19 </desc>
<link href="https://chemins.be/montsaintandre/sentier/19"/><trkseg>
<trkpt lat="50.666993" lon="4.877761"><time>2026-05-09T18:36:58Z</time></trkpt>
<trkpt lat="50.663180" lon="4.881781"><time>2026-05-09T18:46:58Z</time></trkpt>
</trkseg></trk>
<trk>
<name>brmma19</name>
<cmt>s</cmt>
<desc>Mont-Saint-André Sentier n°19 </desc>
<link href="https://chemins.be/montsaintandre/sentier/19"/><trkseg>
<trkpt lat="50.663180" lon="4.881781"><time>2026-05-09T18:46:58Z</time></trkpt>
<trkpt lat="50.660350" lon="4.885129"><time>2026-05-09T18:56:58Z</time></trkpt>
</trkseg>
</trk>
<trk>
<name>brmma2</name>
<cmt>r</cmt>
<desc>Mont-Saint-André Chemin n°2 Rue de Laloux</desc>
<link href="https://chemins.be/montsaintandre/chemin/2"/><trkseg>
<trkpt lat="50.669993" lon="4.882788"><time>2026-05-09T17:36:58Z</time></trkpt>
<trkpt lat="50.668959" lon="4.879712"><time>2026-05-09T17:46:58Z</time></trkpt>
<trkpt lat="50.668388" lon="4.877259"><time>2026-05-09T17:56:58Z</time></trkpt>
<trkpt lat="50.667800" lon="4.876761"><time>2026-05-09T18:06:58Z</time></trkpt>
<trkpt lat="50.667381" lon="4.875527"><time>2026-05-09T18:16:58Z</time></trkpt>
<trkpt lat="50.667163" lon="4.874569"><time>2026-05-09T18:26:58Z</time></trkpt>
</trkseg>
</trk>
<trk>
<name>brmma20</name>
<cmt>v</cmt>
<desc>Mont-Saint-André Chemin n°20 </desc>
<link href="https://chemins.be/montsaintandre/chemin/20"/><trkseg>
<trkpt lat="50.662862" lon="4.874424"><time>2026-05-09T17:36:58Z</time></trkpt>
<trkpt lat="50.662631" lon="4.874688"><time>2026-05-09T17:46:58Z</time></trkpt>
<trkpt lat="50.662283" lon="4.875050"><time>2026-05-09T17:56:58Z</time></trkpt>
<trkpt lat="50.661999" lon="4.875333"><time>2026-05-09T18:06:58Z</time></trkpt>
<trkpt lat="50.661764" lon="4.875516"><time>2026-05-09T18:16:58Z</time></trkpt>
<trkpt lat="50.661631" lon="4.875557"><time>2026-05-09T18:26:58Z</time></trkpt>
<trkpt lat="50.660440" lon="4.875493"><time>2026-05-09T18:36:58Z</time></trkpt>
<trkpt lat="50.660321" lon="4.875493"><time>2026-05-09T18:46:58Z</time></trkpt>
<trkpt lat="50.659672" lon="4.875626"><time>2026-05-09T18:56:58Z</time></trkpt>
<trkpt lat="50.659388" lon="4.875639"><time>2026-05-09T19:06:58Z</time></trkpt>
<trkpt lat="50.658904" lon="4.875616"><time>2026-05-09T19:16:58Z</time></trkpt>
<trkpt lat="50.658640" lon="4.875662"><time>2026-05-09T19:26:58Z</time></trkpt>
<trkpt lat="50.658385" lon="4.875708"><time>2026-05-09T19:36:58Z</time></trkpt>
<trkpt lat="50.657939" lon="4.875740"><time>2026-05-09T19:46:58Z</time></trkpt>
<trkpt lat="50.657417" lon="4.875799"><time>2026-05-09T19:56:58Z</time></trkpt>
<trkpt lat="50.657174" lon="4.875763"><time>2026-05-09T20:06:58Z</time></trkpt>
<trkpt lat="50.656235" lon="4.876795"><time>2026-05-09T20:16:58Z</time></trkpt>
</trkseg>
</trk>
<trk>
<name>brmma21</name>
<cmt>d</cmt>
<desc>Mont-Saint-André Chemin n°21 </desc>
<link href="https://chemins.be/montsaintandre/chemin/21"/><trkseg>
<trkpt lat="50.658115" lon="4.856754"><time>2026-05-09T17:36:58Z</time></trkpt>
<trkpt lat="50.658099" lon="4.856078"><time>2026-05-09T17:46:58Z</time></trkpt>
<trkpt lat="50.658067" lon="4.854704"><time>2026-05-09T17:56:58Z</time></trkpt>
<trkpt lat="50.657229" lon="4.851725"><time>2026-05-09T18:06:58Z</time></trkpt>
</trkseg>
</trk>
<trk>
<name>brmma22</name>
<cmt>s</cmt>
<desc>Mont-Saint-André Sentier n°22 </desc>
<link href="https://chemins.be/montsaintandre/sentier/22"/><trkseg>
<trkpt lat="50.664259" lon="4.875605"><time>2026-05-09T17:36:58Z</time></trkpt>
<trkpt lat="50.665363" lon="4.876171"><time>2026-05-09T17:46:58Z</time></trkpt>
<trkpt lat="50.666473" lon="4.876927"><time>2026-05-09T17:56:58Z</time></trkpt>
<trkpt lat="50.667006" lon="4.877811"><time>2026-05-09T18:06:58Z</time></trkpt>
<trkpt lat="50.668132" lon="4.880506"><time>2026-05-09T18:16:58Z</time></trkpt>
<trkpt lat="50.670292" lon="4.885038"><time>2026-05-09T18:26:58Z</time></trkpt>
</trkseg>
</trk>
<trk>
<name>brmma23</name>
<cmt>s</cmt>
<desc>Mont-Saint-André Sentier n°23 </desc>
<link href="https://chemins.be/montsaintandre/sentier/23"/><trkseg>
<trkpt lat="50.668786" lon="4.878969"><time>2026-05-09T17:36:58Z</time></trkpt>
<trkpt lat="50.668979" lon="4.877492"><time>2026-05-09T17:46:58Z</time></trkpt>
<trkpt lat="50.668754" lon="4.876226"><time>2026-05-09T17:56:58Z</time></trkpt>
<trkpt lat="50.668037" lon="4.873808"><time>2026-05-09T18:06:58Z</time></trkpt>
</trkseg>
</trk>
<trk>
<name>brmma24</name>
<cmt>s</cmt>
<desc>Mont-Saint-André Sentier n°24 </desc>
<link href="https://chemins.be/montsaintandre/sentier/24"/><trkseg>
<trkpt lat="50.668637" lon="4.876162"><time>2026-05-09T17:36:58Z</time></trkpt>
<trkpt lat="50.670579" lon="4.877561"><time>2026-05-09T17:46:58Z</time></trkpt>
</trkseg>
</trk>
<trk>
<name>brmma25</name>
<cmt>q</cmt>
<desc>Mont-Saint-André Sentier n°25 </desc>
<link href="https://chemins.be/montsaintandre/sentier/25"/><trkseg>
<trkpt lat="50.654145" lon="4.865781"><time>2026-05-09T17:36:58Z</time></trkpt>
<trkpt lat="50.654875" lon="4.865265"><time>2026-05-09T17:46:58Z</time></trkpt>
</trkseg></trk>
<trk>
<name>brmma25</name>
<cmt>s</cmt>
<desc>Mont-Saint-André Sentier n°25 </desc>
<link href="https://chemins.be/montsaintandre/sentier/25"/><trkseg>
<trkpt lat="50.654875" lon="4.865265"><time>2026-05-09T17:46:58Z</time></trkpt>
<trkpt lat="50.655282" lon="4.864676"><time>2026-05-09T17:56:58Z</time></trkpt>
</trkseg>
</trk>
<trk>
<name>brmma25bis</name>
<cmt>s</cmt>
<desc>Mont-Saint-André Sentier n°25bis </desc>
<link href="https://chemins.be/montsaintandre/sentier/25bis"/><trkseg>
<trkpt lat="50.654857" lon="4.865279"><time>2026-05-09T17:36:58Z</time></trkpt>
<trkpt lat="50.654531" lon="4.867878"><time>2026-05-09T17:46:58Z</time></trkpt>
<trkpt lat="50.654111" lon="4.871635"><time>2026-05-09T17:56:58Z</time></trkpt>
</trkseg>
</trk>
<trk>
<name>brmma26</name>
<cmt>r</cmt>
<desc>Mont-Saint-André Sentier n°26 Rue du Brou</desc>
<link href="https://chemins.be/montsaintandre/sentier/26"/><trkseg>
<trkpt lat="50.654240" lon="4.852965"><time>2026-05-09T17:36:58Z</time></trkpt>
<trkpt lat="50.652109" lon="4.846657"><time>2026-05-09T17:46:58Z</time></trkpt>
<trkpt lat="50.651420" lon="4.844905"><time>2026-05-09T17:56:58Z</time></trkpt>
</trkseg>
</trk>
<trk>
<name>brmma27</name>
<cmt>s</cmt>
<desc>Mont-Saint-André Sentier n°27 </desc>
<link href="https://chemins.be/montsaintandre/sentier/27"/><trkseg>
<trkpt lat="50.655856" lon="4.858314"><time>2026-05-09T17:36:58Z</time></trkpt>
<trkpt lat="50.657124" lon="4.858383"><time>2026-05-09T17:46:58Z</time></trkpt>
<trkpt lat="50.658680" lon="4.857550"><time>2026-05-09T17:56:58Z</time></trkpt>
</trkseg>
</trk>
<trk>
<name>brmma28</name>
<cmt>v</cmt>
<desc>Mont-Saint-André Sentier n°28 Rue de l'Abyme</desc>
<link href="https://chemins.be/montsaintandre/sentier/28"/><trkseg>
<trkpt lat="50.662465" lon="4.867771"><time>2026-05-09T17:36:58Z</time></trkpt>
<trkpt lat="50.662074" lon="4.867258"><time>2026-05-09T17:46:58Z</time></trkpt>
</trkseg></trk>
<trk>
<name>brmma28</name>
<cmt>r</cmt>
<desc>Mont-Saint-André Sentier n°28 Rue de l'Abyme</desc>
<link href="https://chemins.be/montsaintandre/sentier/28"/><trkseg>
<trkpt lat="50.662074" lon="4.867258"><time>2026-05-09T17:46:58Z</time></trkpt>
<trkpt lat="50.662277" lon="4.867145"><time>2026-05-09T17:56:58Z</time></trkpt>
<trkpt lat="50.662685" lon="4.867322"><time>2026-05-09T18:06:58Z</time></trkpt>
</trkseg></trk>
<trk>
<name>brmma28</name>
<cmt>s</cmt>
<desc>Mont-Saint-André Sentier n°28 Rue de l'Abyme</desc>
<link href="https://chemins.be/montsaintandre/sentier/28"/><trkseg>
<trkpt lat="50.662685" lon="4.867322"><time>2026-05-09T18:06:58Z</time></trkpt>
<trkpt lat="50.663038" lon="4.866554"><time>2026-05-09T18:16:58Z</time></trkpt>
<trkpt lat="50.663751" lon="4.866442"><time>2026-05-09T18:26:58Z</time></trkpt>
<trkpt lat="50.664518" lon="4.864992"><time>2026-05-09T18:36:58Z</time></trkpt>
<trkpt lat="50.665633" lon="4.863421"><time>2026-05-09T18:46:58Z</time></trkpt>
<trkpt lat="50.666172" lon="4.863026"><time>2026-05-09T18:56:58Z</time></trkpt>
</trkseg>
</trk>
<trk>
<name>brmma29</name>
<cmt>s</cmt>
<desc>Mont-Saint-André Sentier n°29 </desc>
<link href="https://chemins.be/montsaintandre/sentier/29"/><trkseg>
<trkpt lat="50.663203" lon="4.868104"><time>2026-05-09T17:36:58Z</time></trkpt>
<trkpt lat="50.666445" lon="4.873512"><time>2026-05-09T17:46:58Z</time></trkpt>
</trkseg>
</trk>
<trk>
<name>brmma3</name>
<cmt>v</cmt>
<desc>Mont-Saint-André Chemin n°3 </desc>
<link href="https://chemins.be/montsaintandre/chemin/3"/><trkseg>
<trkpt lat="50.664030" lon="4.854498"><time>2026-05-09T17:36:58Z</time></trkpt>
<trkpt lat="50.665189" lon="4.856327"><time>2026-05-09T17:46:58Z</time></trkpt>
<trkpt lat="50.665499" lon="4.857652"><time>2026-05-09T17:56:58Z</time></trkpt>
<trkpt lat="50.665989" lon="4.862244"><time>2026-05-09T18:06:58Z</time></trkpt>
<trkpt lat="50.667221" lon="4.867053"><time>2026-05-09T18:16:58Z</time></trkpt>
<trkpt lat="50.667242" lon="4.868102"><time>2026-05-09T18:26:58Z</time></trkpt>
</trkseg></trk>
<trk>
<name>brmma3</name>
<cmt>r</cmt>
<desc>Mont-Saint-André Chemin n°3 </desc>
<link href="https://chemins.be/montsaintandre/chemin/3"/><trkseg>
<trkpt lat="50.667242" lon="4.868102"><time>2026-05-09T18:26:58Z</time></trkpt>
<trkpt lat="50.667172" lon="4.869493"><time>2026-05-09T18:36:58Z</time></trkpt>
<trkpt lat="50.667292" lon="4.871003"><time>2026-05-09T18:46:58Z</time></trkpt>
<trkpt lat="50.667177" lon="4.871909"><time>2026-05-09T18:56:58Z</time></trkpt>
<trkpt lat="50.668043" lon="4.873840"><time>2026-05-09T19:06:58Z</time></trkpt>
</trkseg>
</trk>
<trk>
<name>brmma30</name>
<cmt>d</cmt>
<desc>Mont-Saint-André Sentier n°30 </desc>
<link href="https://chemins.be/montsaintandre/sentier/30"/><trkseg>
<trkpt lat="50.667774" lon="4.876806"><time>2026-05-09T17:36:58Z</time></trkpt>
<trkpt lat="50.668101" lon="4.877849"><time>2026-05-09T17:46:58Z</time></trkpt>
<trkpt lat="50.668106" lon="4.878243"><time>2026-05-09T17:56:58Z</time></trkpt>
<trkpt lat="50.667946" lon="4.878703"><time>2026-05-09T18:06:58Z</time></trkpt>
</trkseg></trk>
<trk>
<name>brmma30</name>
<cmt>s</cmt>
<desc>Mont-Saint-André Sentier n°30 </desc>
<link href="https://chemins.be/montsaintandre/sentier/30"/><trkseg>
<trkpt lat="50.667946" lon="4.878703"><time>2026-05-09T18:06:58Z</time></trkpt>
<trkpt lat="50.668131" lon="4.879677"><time>2026-05-09T18:16:58Z</time></trkpt>
<trkpt lat="50.668084" lon="4.880394"><time>2026-05-09T18:26:58Z</time></trkpt>
<trkpt lat="50.667980" lon="4.882566"><time>2026-05-09T18:36:58Z</time></trkpt>
<trkpt lat="50.667550" lon="4.883141"><time>2026-05-09T18:46:58Z</time></trkpt>
<trkpt lat="50.667365" lon="4.885982"><time>2026-05-09T18:56:58Z</time></trkpt>
<trkpt lat="50.667539" lon="4.886737"><time>2026-05-09T19:06:58Z</time></trkpt>
</trkseg>
</trk>
<trk>
<name>brmma31</name>
<cmt>s</cmt>
<desc>Mont-Saint-André Sentier n°31 Rue de l'Église / Rue des Carrières</desc>
<link href="https://chemins.be/montsaintandre/sentier/31"/><trkseg>
<trkpt lat="50.654127" lon="4.865809"><time>2026-05-09T17:36:58Z</time></trkpt>
<trkpt lat="50.655338" lon="4.866444"><time>2026-05-09T17:46:58Z</time></trkpt>
<trkpt lat="50.656387" lon="4.867049"><time>2026-05-09T17:56:58Z</time></trkpt>
</trkseg></trk>
<trk>
<name>brmma31</name>
<cmt>r</cmt>
<desc>Mont-Saint-André Sentier n°31 Rue de l'Église / Rue des Carrières</desc>
<link href="https://chemins.be/montsaintandre/sentier/31"/><trkseg>
<trkpt lat="50.656387" lon="4.867049"><time>2026-05-09T17:56:58Z</time></trkpt>
<trkpt lat="50.657022" lon="4.867820"><time>2026-05-09T18:06:58Z</time></trkpt>
<trkpt lat="50.657354" lon="4.868095"><time>2026-05-09T18:16:58Z</time></trkpt>
</trkseg></trk>
<trk>
<name>brmma31</name>
<cmt>s</cmt>
<desc>Mont-Saint-André Sentier n°31 Rue de l'Église / Rue des Carrières</desc>
<link href="https://chemins.be/montsaintandre/sentier/31"/><trkseg>
<trkpt lat="50.657354" lon="4.868095"><time>2026-05-09T18:16:58Z</time></trkpt>
<trkpt lat="50.657529" lon="4.868353"><time>2026-05-09T18:26:58Z</time></trkpt>
</trkseg></trk>
<trk>
<name>brmma31</name>
<cmt>b</cmt>
<desc>Mont-Saint-André Sentier n°31 Rue de l'Église / Rue des Carrières</desc>
<link href="https://chemins.be/montsaintandre/sentier/31"/><trkseg>
<trkpt lat="50.657529" lon="4.868353"><time>2026-05-09T18:26:58Z</time></trkpt>
<trkpt lat="50.658176" lon="4.869197"><time>2026-05-09T18:36:58Z</time></trkpt>
</trkseg></trk>
<trk>
<name>brmma31</name>
<cmt>d</cmt>
<desc>Mont-Saint-André Sentier n°31 Rue de l'Église / Rue des Carrières</desc>
<link href="https://chemins.be/montsaintandre/sentier/31"/><trkseg>
<trkpt lat="50.658176" lon="4.869197"><time>2026-05-09T18:36:58Z</time></trkpt>
<trkpt lat="50.658511" lon="4.869634"><time>2026-05-09T18:46:58Z</time></trkpt>
<trkpt lat="50.658811" lon="4.870026"><time>2026-05-09T18:56:58Z</time></trkpt>
</trkseg></trk>
<trk>
<name>brmma31</name>
<cmt>v</cmt>
<desc>Mont-Saint-André Sentier n°31 Rue de l'Église / Rue des Carrières</desc>
<link href="https://chemins.be/montsaintandre/sentier/31"/><trkseg>
<trkpt lat="50.658811" lon="4.870026"><time>2026-05-09T18:56:58Z</time></trkpt>
<trkpt lat="50.659105" lon="4.870300"><time>2026-05-09T19:06:58Z</time></trkpt>
<trkpt lat="50.661929" lon="4.872383"><time>2026-05-09T19:16:58Z</time></trkpt>
<trkpt lat="50.662380" lon="4.872077"><time>2026-05-09T19:26:58Z</time></trkpt>
</trkseg>
</trk>
<trk>
<name>brmma31bis</name>
<cmt>s</cmt>
<desc>Mont-Saint-André Sentier n°31bis </desc>
<link href="https://chemins.be/montsaintandre/sentier/31bis"/><trkseg>
<trkpt lat="50.654884" lon="4.865237"><time>2026-05-09T17:36:58Z</time></trkpt>
<trkpt lat="50.655338" lon="4.866444"><time>2026-05-09T17:46:58Z</time></trkpt>
</trkseg>
</trk>
<trk>
<name>brmma32</name>
<cmt>v</cmt>
<desc>Mont-Saint-André Sentier n°32 Rue Petit Warichet</desc>
<link href="https://chemins.be/montsaintandre/sentier/32"/><trkseg>
<trkpt lat="50.653862" lon="4.860333"><time>2026-05-09T17:36:58Z</time></trkpt>
<trkpt lat="50.653764" lon="4.860198"><time>2026-05-09T17:46:58Z</time></trkpt>
<trkpt lat="50.653336" lon="4.859605"><time>2026-05-09T17:56:58Z</time></trkpt>
</trkseg></trk>
<trk>
<name>brmma32</name>
<cmt>d</cmt>
<desc>Mont-Saint-André Sentier n°32 Rue Petit Warichet</desc>
<link href="https://chemins.be/montsaintandre/sentier/32"/><trkseg>
<trkpt lat="50.653336" lon="4.859605"><time>2026-05-09T17:56:58Z</time></trkpt>
<trkpt lat="50.653030" lon="4.859529"><time>2026-05-09T18:06:58Z</time></trkpt>
<trkpt lat="50.652440" lon="4.859317"><time>2026-05-09T18:16:58Z</time></trkpt>
<trkpt lat="50.651366" lon="4.859404"><time>2026-05-09T18:26:58Z</time></trkpt>
<trkpt lat="50.651289" lon="4.859324"><time>2026-05-09T18:36:58Z</time></trkpt>
</trkseg></trk>
<trk>
<name>brmma32</name>
<cmt>v</cmt>
<desc>Mont-Saint-André Sentier n°32 Rue Petit Warichet</desc>
<link href="https://chemins.be/montsaintandre/sentier/32"/><trkseg>
<trkpt lat="50.651289" lon="4.859324"><time>2026-05-09T18:36:58Z</time></trkpt>
<trkpt lat="50.651120" lon="4.859582"><time>2026-05-09T18:46:58Z</time></trkpt>
</trkseg></trk>
<trk>
<name>brmma32</name>
<cmt>b</cmt>
<desc>Mont-Saint-André Sentier n°32 Rue Petit Warichet</desc>
<link href="https://chemins.be/montsaintandre/sentier/32"/><trkseg>
<trkpt lat="50.651120" lon="4.859582"><time>2026-05-09T18:46:58Z</time></trkpt>
<trkpt lat="50.650691" lon="4.860279"><time>2026-05-09T18:56:58Z</time></trkpt>
</trkseg></trk>
<trk>
<name>brmma32</name>
<cmt>r</cmt>
<desc>Mont-Saint-André Sentier n°32 Rue Petit Warichet</desc>
<link href="https://chemins.be/montsaintandre/sentier/32"/><trkseg>
<trkpt lat="50.650691" lon="4.860279"><time>2026-05-09T18:56:58Z</time></trkpt>
<trkpt lat="50.650353" lon="4.859849"><time>2026-05-09T19:06:58Z</time></trkpt>
</trkseg></trk>
<trk>
<name>brmma32</name>
<cmt>d</cmt>
<desc>Mont-Saint-André Sentier n°32 Rue Petit Warichet</desc>
<link href="https://chemins.be/montsaintandre/sentier/32"/><trkseg>
<trkpt lat="50.650353" lon="4.859849"><time>2026-05-09T19:06:58Z</time></trkpt>
<trkpt lat="50.649173" lon="4.859895"><time>2026-05-09T19:16:58Z</time></trkpt>
<trkpt lat="50.646347" lon="4.860004"><time>2026-05-09T19:26:58Z</time></trkpt>
</trkseg>
</trk>
<trk>
<name>brmma33</name>
<cmt>b</cmt>
<desc>Mont-Saint-André Sentier n°33 Rue du Brou</desc>
<link href="https://chemins.be/montsaintandre/sentier/33"/><trkseg>
<trkpt lat="50.651151" lon="4.859457"><time>2026-05-09T17:36:58Z</time></trkpt>
<trkpt lat="50.651114" lon="4.859374"><time>2026-05-09T17:46:58Z</time></trkpt>
<trkpt lat="50.650945" lon="4.859016"><time>2026-05-09T17:56:58Z</time></trkpt>
</trkseg></trk>
<trk>
<name>brmma33</name>
<cmt>d</cmt>
<desc>Mont-Saint-André Sentier n°33 Rue du Brou</desc>
<link href="https://chemins.be/montsaintandre/sentier/33"/><trkseg>
<trkpt lat="50.650945" lon="4.859016"><time>2026-05-09T17:56:58Z</time></trkpt>
<trkpt lat="50.650655" lon="4.858395"><time>2026-05-09T18:06:58Z</time></trkpt>
<trkpt lat="50.649699" lon="4.856345"><time>2026-05-09T18:16:58Z</time></trkpt>
</trkseg></trk>
<trk>
<name>brmma33</name>
<cmt>r</cmt>
<desc>Mont-Saint-André Sentier n°33 Rue du Brou</desc>
<link href="https://chemins.be/montsaintandre/sentier/33"/><trkseg>
<trkpt lat="50.649699" lon="4.856345"><time>2026-05-09T18:16:58Z</time></trkpt>
<trkpt lat="50.650615" lon="4.855384"><time>2026-05-09T18:26:58Z</time></trkpt>
</trkseg></trk>
<trk>
<name>brmma33</name>
<cmt>v</cmt>
<desc>Mont-Saint-André Sentier n°33 Rue du Brou</desc>
<link href="https://chemins.be/montsaintandre/sentier/33"/><trkseg>
<trkpt lat="50.650615" lon="4.855384"><time>2026-05-09T18:26:58Z</time></trkpt>
<trkpt lat="50.649823" lon="4.854073"><time>2026-05-09T18:36:58Z</time></trkpt>
<trkpt lat="50.649880" lon="4.853759"><time>2026-05-09T18:46:58Z</time></trkpt>
<trkpt lat="50.649868" lon="4.851127"><time>2026-05-09T18:56:58Z</time></trkpt>
<trkpt lat="50.649866" lon="4.850634"><time>2026-05-09T19:06:58Z</time></trkpt>
<trkpt lat="50.650063" lon="4.846703"><time>2026-05-09T19:16:58Z</time></trkpt>
</trkseg>
</trk>
<trk>
<name>brmma34</name>
<cmt>s</cmt>
<desc>Mont-Saint-André Sentier n°34 </desc>
<link href="https://chemins.be/montsaintandre/sentier/34"/><trkseg>
<trkpt lat="50.648850" lon="4.857241"><time>2026-05-09T17:36:58Z</time></trkpt>
<trkpt lat="50.648317" lon="4.857872"><time>2026-05-09T17:46:58Z</time></trkpt>
<trkpt lat="50.646303" lon="4.859915"><time>2026-05-09T17:56:58Z</time></trkpt>
</trkseg>
</trk>
<trk>
<name>brmma35</name>
<cmt>q</cmt>
<desc>Mont-Saint-André Sentier n°35 </desc>
<link href="https://chemins.be/montsaintandre/sentier/35"/><trkseg>
<trkpt lat="50.652039" lon="4.865106"><time>2026-05-09T17:36:58Z</time></trkpt>
<trkpt lat="50.652024" lon="4.865734"><time>2026-05-09T17:46:58Z</time></trkpt>
<trkpt lat="50.651404" lon="4.866966"><time>2026-05-09T17:56:58Z</time></trkpt>
<trkpt lat="50.650815" lon="4.867590"><time>2026-05-09T18:06:58Z</time></trkpt>
</trkseg>
</trk>
<trk>
<name>brmma36</name>
<cmt>v</cmt>
<desc>Mont-Saint-André Sentier n°36 </desc>
<link href="https://chemins.be/montsaintandre/sentier/36"/><trkseg>
<trkpt lat="50.653853" lon="4.864533"><time>2026-05-09T17:36:58Z</time></trkpt>
<trkpt lat="50.652836" lon="4.864933"><time>2026-05-09T17:46:58Z</time></trkpt>
<trkpt lat="50.652654" lon="4.865412"><time>2026-05-09T17:56:58Z</time></trkpt>
</trkseg>
</trk>
<trk>
<name>brmma37</name>
<cmt>d</cmt>
<desc>Mont-Saint-André Sentier n°37 </desc>
<link href="https://chemins.be/montsaintandre/sentier/37"/><trkseg>
<trkpt lat="50.659310" lon="4.866761"><time>2026-05-09T17:36:58Z</time></trkpt>
<trkpt lat="50.660442" lon="4.864519"><time>2026-05-09T17:46:58Z</time></trkpt>
<trkpt lat="50.660803" lon="4.864347"><time>2026-05-09T17:56:58Z</time></trkpt>
<trkpt lat="50.660384" lon="4.858832"><time>2026-05-09T18:06:58Z</time></trkpt>
<trkpt lat="50.660820" lon="4.857287"><time>2026-05-09T18:16:58Z</time></trkpt>
</trkseg></trk>
<trk>
<name>brmma37</name>
<cmt>v</cmt>
<desc>Mont-Saint-André Sentier n°37 </desc>
<link href="https://chemins.be/montsaintandre/sentier/37"/><trkseg>
<trkpt lat="50.660820" lon="4.857287"><time>2026-05-09T18:16:58Z</time></trkpt>
<trkpt lat="50.662574" lon="4.854777"><time>2026-05-09T18:26:58Z</time></trkpt>
<trkpt lat="50.663146" lon="4.853109"><time>2026-05-09T18:36:58Z</time></trkpt>
</trkseg></trk>
<trk>
<name>brmma37</name>
<cmt>q</cmt>
<desc>Mont-Saint-André Sentier n°37 </desc>
<link href="https://chemins.be/montsaintandre/sentier/37"/><trkseg>
<trkpt lat="50.663146" lon="4.853109"><time>2026-05-09T18:36:58Z</time></trkpt>
<trkpt lat="50.663778" lon="4.852062"><time>2026-05-09T18:46:58Z</time></trkpt>
<trkpt lat="50.664159" lon="4.850796"><time>2026-05-09T18:56:58Z</time></trkpt>
</trkseg>
</trk>
<trk>
<name>brmma38</name>
<cmt>q</cmt>
<desc>Mont-Saint-André Sentier n°38 </desc>
<link href="https://chemins.be/montsaintandre/sentier/38"/><trkseg>
<trkpt lat="50.654753" lon="4.860145"><time>2026-05-09T17:36:58Z</time></trkpt>
<trkpt lat="50.654867" lon="4.860768"><time>2026-05-09T17:46:58Z</time></trkpt>
<trkpt lat="50.655189" lon="4.861252"><time>2026-05-09T17:56:58Z</time></trkpt>
<trkpt lat="50.655985" lon="4.862237"><time>2026-05-09T18:06:58Z</time></trkpt>
<trkpt lat="50.656717" lon="4.863418"><time>2026-05-09T18:16:58Z</time></trkpt>
<trkpt lat="50.657216" lon="4.864498"><time>2026-05-09T18:26:58Z</time></trkpt>
</trkseg>
</trk>
<trk>
<name>brmma39</name>
<cmt>s</cmt>
<desc>Mont-Saint-André Sentier n°39 </desc>
<link href="https://chemins.be/montsaintandre/sentier/39"/><trkseg>
<trkpt lat="50.654968" lon="4.862466"><time>2026-05-09T17:36:58Z</time></trkpt>
<trkpt lat="50.655257" lon="4.862073"><time>2026-05-09T17:46:58Z</time></trkpt>
<trkpt lat="50.655268" lon="4.861692"><time>2026-05-09T17:56:58Z</time></trkpt>
<trkpt lat="50.655207" lon="4.861253"><time>2026-05-09T18:06:58Z</time></trkpt>
</trkseg>
</trk>
<trk>
<name>brmma4</name>
<cmt>r</cmt>
<desc>Mont-Saint-André Chemin n°4 Rue de l'Église</desc>
<link href="https://chemins.be/montsaintandre/chemin/4"/><trkseg>
<trkpt lat="50.654932" lon="4.862551"><time>2026-05-09T17:36:58Z</time></trkpt>
<trkpt lat="50.654516" lon="4.861033"><time>2026-05-09T17:46:58Z</time></trkpt>
<trkpt lat="50.654630" lon="4.860200"><time>2026-05-09T17:56:58Z</time></trkpt>
<trkpt lat="50.655657" lon="4.858865"><time>2026-05-09T18:06:58Z</time></trkpt>
<trkpt lat="50.656314" lon="4.857228"><time>2026-05-09T18:16:58Z</time></trkpt>
<trkpt lat="50.658062" lon="4.856874"><time>2026-05-09T18:26:58Z</time></trkpt>
</trkseg></trk>
<trk>
<name>brmma4</name>
<cmt>v</cmt>
<desc>Mont-Saint-André Chemin n°4 Rue de l'Église</desc>
<link href="https://chemins.be/montsaintandre/chemin/4"/><trkseg>
<trkpt lat="50.658062" lon="4.856874"><time>2026-05-09T18:26:58Z</time></trkpt>
<trkpt lat="50.658596" lon="4.857132"><time>2026-05-09T18:36:58Z</time></trkpt>
<trkpt lat="50.658688" lon="4.857582"><time>2026-05-09T18:46:58Z</time></trkpt>
<trkpt lat="50.659442" lon="4.857861"><time>2026-05-09T18:56:58Z</time></trkpt>
<trkpt lat="50.660857" lon="4.857346"><time>2026-05-09T19:06:58Z</time></trkpt>
<trkpt lat="50.662636" lon="4.857631"><time>2026-05-09T19:16:58Z</time></trkpt>
<trkpt lat="50.663431" lon="4.857599"><time>2026-05-09T19:26:58Z</time></trkpt>
<trkpt lat="50.664411" lon="4.857920"><time>2026-05-09T19:36:58Z</time></trkpt>
<trkpt lat="50.665424" lon="4.857534"><time>2026-05-09T19:46:58Z</time></trkpt>
</trkseg>
</trk>
<trk>
<name>brmma40</name>
<cmt>d</cmt>
<desc>Mont-Saint-André Sentier n°40 </desc>
<link href="https://chemins.be/montsaintandre/sentier/40"/><trkseg>
<trkpt lat="50.652984" lon="4.859603"><time>2026-05-09T17:36:58Z</time></trkpt>
<trkpt lat="50.652515" lon="4.860051"><time>2026-05-09T17:46:58Z</time></trkpt>
<trkpt lat="50.652475" lon="4.860969"><time>2026-05-09T17:56:58Z</time></trkpt>
<trkpt lat="50.652311" lon="4.861604"><time>2026-05-09T18:06:58Z</time></trkpt>
<trkpt lat="50.652290" lon="4.862170"><time>2026-05-09T18:16:58Z</time></trkpt>
<trkpt lat="50.651572" lon="4.861992"><time>2026-05-09T18:26:58Z</time></trkpt>
</trkseg>
</trk>
<trk>
<name>brmma41</name>
<cmt>s</cmt>
<desc>Mont-Saint-André Sentier n°41 </desc>
<link href="https://chemins.be/montsaintandre/sentier/41"/><trkseg>
<trkpt lat="50.662289" lon="4.869203"><time>2026-05-09T17:36:58Z</time></trkpt>
<trkpt lat="50.662702" lon="4.869992"><time>2026-05-09T17:46:58Z</time></trkpt>
<trkpt lat="50.667218" lon="4.871486"><time>2026-05-09T17:56:58Z</time></trkpt>
</trkseg>
</trk>
<trk>
<name>brmma43</name>
<cmt>s</cmt>
<desc>Mont-Saint-André Chemin n°43 </desc>
<link href="https://chemins.be/montsaintandre/chemin/43"/><trkseg>
<trkpt lat="50.657292" lon="4.865607"><time>2026-05-09T17:36:58Z</time></trkpt>
<trkpt lat="50.656919" lon="4.865427"><time>2026-05-09T17:46:58Z</time></trkpt>
<trkpt lat="50.657227" lon="4.864496"><time>2026-05-09T17:56:58Z</time></trkpt>
</trkseg>
</trk>
<trk>
<name>brmma44</name>
<cmt>s</cmt>
<desc>Mont-Saint-André Chemin n°44 Rue de l'Amérique / Rue Petit Warichet</desc>
<link href="https://chemins.be/montsaintandre/chemin/44"/><trkseg>
<trkpt lat="50.653904" lon="4.864481"><time>2026-05-09T17:36:58Z</time></trkpt>
<trkpt lat="50.654022" lon="4.865586"><time>2026-05-09T17:46:58Z</time></trkpt>
</trkseg></trk>
<trk>
<name>brmma44</name>
<cmt>r</cmt>
<desc>Mont-Saint-André Chemin n°44 Rue de l'Amérique / Rue Petit Warichet</desc>
<link href="https://chemins.be/montsaintandre/chemin/44"/><trkseg>
<trkpt lat="50.654022" lon="4.865586"><time>2026-05-09T17:46:58Z</time></trkpt>
<trkpt lat="50.653690" lon="4.865635"><time>2026-05-09T17:56:58Z</time></trkpt>
<trkpt lat="50.652520" lon="4.865598"><time>2026-05-09T18:06:58Z</time></trkpt>
<trkpt lat="50.652238" lon="4.865097"><time>2026-05-09T18:16:58Z</time></trkpt>
<trkpt lat="50.651955" lon="4.865099"><time>2026-05-09T18:26:58Z</time></trkpt>
<trkpt lat="50.651700" lon="4.864936"><time>2026-05-09T18:36:58Z</time></trkpt>
<trkpt lat="50.651172" lon="4.864259"><time>2026-05-09T18:46:58Z</time></trkpt>
<trkpt lat="50.650065" lon="4.862882"><time>2026-05-09T18:56:58Z</time></trkpt>
</trkseg></trk>
<trk>
<name>brmma44</name>
<cmt>v</cmt>
<desc>Mont-Saint-André Chemin n°44 Rue de l'Amérique / Rue Petit Warichet</desc>
<link href="https://chemins.be/montsaintandre/chemin/44"/><trkseg>
<trkpt lat="50.650065" lon="4.862882"><time>2026-05-09T18:56:58Z</time></trkpt>
<trkpt lat="50.649673" lon="4.862740"><time>2026-05-09T19:06:58Z</time></trkpt>
<trkpt lat="50.648971" lon="4.862560"><time>2026-05-09T19:16:58Z</time></trkpt>
</trkseg></trk>
<trk>
<name>brmma44</name>
<cmt>d</cmt>
<desc>Mont-Saint-André Chemin n°44 Rue de l'Amérique / Rue Petit Warichet</desc>
<link href="https://chemins.be/montsaintandre/chemin/44"/><trkseg>
<trkpt lat="50.648971" lon="4.862560"><time>2026-05-09T19:16:58Z</time></trkpt>
<trkpt lat="50.648233" lon="4.862371"><time>2026-05-09T19:26:58Z</time></trkpt>
<trkpt lat="50.646770" lon="4.861960"><time>2026-05-09T19:36:58Z</time></trkpt>
</trkseg>
</trk>
<trk>
<name>brmma45</name>
<cmt>v</cmt>
<desc>Mont-Saint-André Chemin n°45 </desc>
<link href="https://chemins.be/montsaintandre/chemin/45"/><trkseg>
<trkpt lat="50.647702" lon="4.865734"><time>2026-05-09T17:36:58Z</time></trkpt>
<trkpt lat="50.647402" lon="4.864736"><time>2026-05-09T17:46:58Z</time></trkpt>
<trkpt lat="50.647008" lon="4.864093"><time>2026-05-09T17:56:58Z</time></trkpt>
<trkpt lat="50.646720" lon="4.861875"><time>2026-05-09T18:06:58Z</time></trkpt>
<trkpt lat="50.646339" lon="4.859976"><time>2026-05-09T18:16:58Z</time></trkpt>
</trkseg>
</trk>
<trk>
<name>brmma46</name>
<cmt>s</cmt>
<desc>Mont-Saint-André Sentier n°46 </desc>
<link href="https://chemins.be/montsaintandre/sentier/46"/><trkseg>
<trkpt lat="50.655546" lon="4.865043"><time>2026-05-09T17:36:58Z</time></trkpt>
<trkpt lat="50.656270" lon="4.864837"><time>2026-05-09T17:46:58Z</time></trkpt>
<trkpt lat="50.656465" lon="4.865189"><time>2026-05-09T17:56:58Z</time></trkpt>
<trkpt lat="50.657271" lon="4.865575"><time>2026-05-09T18:06:58Z</time></trkpt>
</trkseg>
</trk>
<trk>
<name>brmma47</name>
<cmt>r</cmt>
<desc>Mont-Saint-André Chemin n°47 Chemin Petite Coyarde</desc>
<link href="https://chemins.be/montsaintandre/chemin/47"/><trkseg>
<trkpt lat="50.659776" lon="4.868055"><time>2026-05-09T17:36:58Z</time></trkpt>
<trkpt lat="50.660257" lon="4.867681"><time>2026-05-09T17:46:58Z</time></trkpt>
<trkpt lat="50.660620" lon="4.867773"><time>2026-05-09T17:56:58Z</time></trkpt>
<trkpt lat="50.661123" lon="4.868094"><time>2026-05-09T18:06:58Z</time></trkpt>
<trkpt lat="50.661476" lon="4.868047"><time>2026-05-09T18:16:58Z</time></trkpt>
</trkseg>
</trk>
<trk>
<name>brmma48</name>
<cmt>v</cmt>
<desc>Mont-Saint-André Chemin n°48 </desc>
<link href="https://chemins.be/montsaintandre/chemin/48"/><trkseg>
<trkpt lat="50.655638" lon="4.871814"><time>2026-05-09T17:36:58Z</time></trkpt>
<trkpt lat="50.655624" lon="4.872422"><time>2026-05-09T17:46:58Z</time></trkpt>
<trkpt lat="50.655570" lon="4.873793"><time>2026-05-09T17:56:58Z</time></trkpt>
<trkpt lat="50.655383" lon="4.874802"><time>2026-05-09T18:06:58Z</time></trkpt>
</trkseg>
</trk>
<trk>
<name>brmma5</name>
<cmt>v</cmt>
<desc>Mont-Saint-André Chemin n°5 Rue du Grand Warichet</desc>
<link href="https://chemins.be/montsaintandre/chemin/5"/><trkseg>
<trkpt lat="50.658022" lon="4.856899"><time>2026-05-09T17:36:58Z</time></trkpt>
<trkpt lat="50.658485" lon="4.856005"><time>2026-05-09T17:46:58Z</time></trkpt>
<trkpt lat="50.658566" lon="4.854060"><time>2026-05-09T17:56:58Z</time></trkpt>
<trkpt lat="50.659337" lon="4.850362"><time>2026-05-09T18:06:58Z</time></trkpt>
<trkpt lat="50.659342" lon="4.848352"><time>2026-05-09T18:16:58Z</time></trkpt>
</trkseg></trk>
<trk>
<name>brmma5</name>
<cmt>s</cmt>
<desc>Mont-Saint-André Chemin n°5 Rue du Grand Warichet</desc>
<link href="https://chemins.be/montsaintandre/chemin/5"/><trkseg>
<trkpt lat="50.659342" lon="4.848352"><time>2026-05-09T18:16:58Z</time></trkpt>
<trkpt lat="50.659650" lon="4.844976"><time>2026-05-09T18:26:58Z</time></trkpt>
<trkpt lat="50.660779" lon="4.839497"><time>2026-05-09T18:36:58Z</time></trkpt>
</trkseg>
</trk>
<trk>
<name>brmma50</name>
<cmt>r</cmt>
<desc>Mont-Saint-André Chemin n°50 Rue du Grand Warichet</desc>
<link href="https://chemins.be/montsaintandre/chemin/50"/><trkseg>
<trkpt lat="50.653284" lon="4.859307"><time>2026-05-09T17:36:58Z</time></trkpt>
<trkpt lat="50.653907" lon="4.858779"><time>2026-05-09T17:46:58Z</time></trkpt>
</trkseg></trk>
<trk>
<name>brmma50</name>
<cmt>v</cmt>
<desc>Mont-Saint-André Chemin n°50 Rue du Grand Warichet</desc>
<link href="https://chemins.be/montsaintandre/chemin/50"/><trkseg>
<trkpt lat="50.653907" lon="4.858779"><time>2026-05-09T17:46:58Z</time></trkpt>
<trkpt lat="50.653608" lon="4.857679"><time>2026-05-09T17:56:58Z</time></trkpt>
</trkseg></trk>
<trk>
<name>brmma50</name>
<cmt>s</cmt>
<desc>Mont-Saint-André Chemin n°50 Rue du Grand Warichet</desc>
<link href="https://chemins.be/montsaintandre/chemin/50"/><trkseg>
<trkpt lat="50.653608" lon="4.857679"><time>2026-05-09T17:56:58Z</time></trkpt>
<trkpt lat="50.653559" lon="4.857538"><time>2026-05-09T18:06:58Z</time></trkpt>
<trkpt lat="50.653826" lon="4.857316"><time>2026-05-09T18:16:58Z</time></trkpt>
</trkseg>
</trk>
<trk>
<name>brmma51</name>
<cmt>r</cmt>
<desc>Mont-Saint-André Chemin n°51 Rue du Grand Warichet</desc>
<link href="https://chemins.be/montsaintandre/chemin/51"/><trkseg>
<trkpt lat="50.654256" lon="4.858699"><time>2026-05-09T17:36:58Z</time></trkpt>
<trkpt lat="50.653896" lon="4.858753"><time>2026-05-09T17:46:58Z</time></trkpt>
</trkseg>
</trk>
<trk>
<name>brmma52</name>
<cmt>r</cmt>
<desc>Mont-Saint-André Chemin n°52 </desc>
<link href="https://chemins.be/montsaintandre/chemin/52"/><trkseg>
<trkpt lat="50.666707" lon="4.876254"><time>2026-05-09T17:36:58Z</time></trkpt>
<trkpt lat="50.667091" lon="4.877027"><time>2026-05-09T17:46:58Z</time></trkpt>
</trkseg></trk>
<trk>
<name>brmma52</name>
<cmt>v</cmt>
<desc>Mont-Saint-André Chemin n°52 </desc>
<link href="https://chemins.be/montsaintandre/chemin/52"/><trkseg>
<trkpt lat="50.667091" lon="4.877027"><time>2026-05-09T17:46:58Z</time></trkpt>
<trkpt lat="50.667123" lon="4.877593"><time>2026-05-09T17:56:58Z</time></trkpt>
</trkseg>
</trk>
<trk>
<name>brmma53</name>
<cmt>r</cmt>
<desc>Mont-Saint-André Chemin n°53 </desc>
<link href="https://chemins.be/montsaintandre/chemin/53"/><trkseg>
<trkpt lat="50.666578" lon="4.873939"><time>2026-05-09T17:36:58Z</time></trkpt>
<trkpt lat="50.666413" lon="4.873457"><time>2026-05-09T17:46:58Z</time></trkpt>
<trkpt lat="50.666771" lon="4.872509"><time>2026-05-09T17:56:58Z</time></trkpt>
<trkpt lat="50.667172" lon="4.871890"><time>2026-05-09T18:06:58Z</time></trkpt>
</trkseg>
</trk>
<trk>
<name>brmma56</name>
<cmt>v</cmt>
<desc>Mont-Saint-André Sentier n°56 </desc>
<link href="https://chemins.be/montsaintandre/sentier/56"/><trkseg>
<trkpt lat="50.654435" lon="4.860976"><time>2026-05-09T17:36:58Z</time></trkpt>
<trkpt lat="50.654140" lon="4.860619"><time>2026-05-09T17:46:58Z</time></trkpt>
<trkpt lat="50.654005" lon="4.860505"><time>2026-05-09T17:56:58Z</time></trkpt>
</trkseg></trk>
<trk>
<name>brmma56</name>
<cmt>d</cmt>
<desc>Mont-Saint-André Sentier n°56 </desc>
<link href="https://chemins.be/montsaintandre/sentier/56"/><trkseg>
<trkpt lat="50.654005" lon="4.860505"><time>2026-05-09T17:56:58Z</time></trkpt>
<trkpt lat="50.653826" lon="4.860474"><time>2026-05-09T18:06:58Z</time></trkpt>
</trkseg>
</trk>
<trk>
<name>brmma57</name>
<cmt>q</cmt>
<desc>Mont-Saint-André Sentier n°57 </desc>
<link href="https://chemins.be/montsaintandre/sentier/57"/><trkseg>
<trkpt lat="50.654895" lon="4.849808"><time>2026-05-09T17:36:58Z</time></trkpt>
<trkpt lat="50.653991" lon="4.846632"><time>2026-05-09T17:46:58Z</time></trkpt>
<trkpt lat="50.653940" lon="4.846037"><time>2026-05-09T17:56:58Z</time></trkpt>
<trkpt lat="50.653924" lon="4.845556"><time>2026-05-09T18:06:58Z</time></trkpt>
<trkpt lat="50.653064" lon="4.842606"><time>2026-05-09T18:16:58Z</time></trkpt>
<trkpt lat="50.652476" lon="4.841144"><time>2026-05-09T18:26:58Z</time></trkpt>
<trkpt lat="50.651998" lon="4.837094"><time>2026-05-09T18:36:58Z</time></trkpt>
</trkseg>
</trk>
<trk>
<name>brmma7</name>
<cmt>v</cmt>
<desc>Mont-Saint-André Chemin n°7 </desc>
<link href="https://chemins.be/montsaintandre/chemin/7"/><trkseg>
<trkpt lat="50.661102" lon="4.887171"><time>2026-05-09T17:36:58Z</time></trkpt>
<trkpt lat="50.663006" lon="4.882313"><time>2026-05-09T17:46:58Z</time></trkpt>
<trkpt lat="50.664203" lon="4.875653"><time>2026-05-09T17:56:58Z</time></trkpt>
</trkseg>
</trk>
<trk>
<name>brmma8</name>
<cmt>s</cmt>
<desc>Mont-Saint-André Chemin n°8 </desc>
<link href="https://chemins.be/montsaintandre/chemin/8"/><trkseg>
<trkpt lat="50.663152" lon="4.853199"><time>2026-05-09T17:36:58Z</time></trkpt>
<trkpt lat="50.662766" lon="4.849276"><time>2026-05-09T17:46:58Z</time></trkpt>
<trkpt lat="50.662184" lon="4.846899"><time>2026-05-09T17:56:58Z</time></trkpt>
<trkpt lat="50.661085" lon="4.841569"><time>2026-05-09T18:06:58Z</time></trkpt>
<trkpt lat="50.660900" lon="4.839766"><time>2026-05-09T18:16:58Z</time></trkpt>
</trkseg>
</trk>
<trk>
<name>brmma9</name>
<cmt>r</cmt>
<desc>Mont-Saint-André Chemin n°9 Rue du Gestiaux</desc>
<link href="https://chemins.be/montsaintandre/chemin/9"/><trkseg>
<trkpt lat="50.654245" lon="4.853058"><time>2026-05-09T17:36:58Z</time></trkpt>
<trkpt lat="50.655049" lon="4.852631"><time>2026-05-09T17:46:58Z</time></trkpt>
</trkseg></trk>
<trk>
<name>brmma9</name>
<cmt>d</cmt>
<desc>Mont-Saint-André Chemin n°9 Rue du Gestiaux</desc>
<link href="https://chemins.be/montsaintandre/chemin/9"/><trkseg>
<trkpt lat="50.655049" lon="4.852631"><time>2026-05-09T17:46:58Z</time></trkpt>
<trkpt lat="50.655846" lon="4.852386"><time>2026-05-09T17:56:58Z</time></trkpt>
<trkpt lat="50.656127" lon="4.852251"><time>2026-05-09T18:06:58Z</time></trkpt>
<trkpt lat="50.657265" lon="4.851707"><time>2026-05-09T18:16:58Z</time></trkpt>
<trkpt lat="50.659355" lon="4.848323"><time>2026-05-09T18:26:58Z</time></trkpt>
</trkseg></trk>
<trk>
<name>brmma9</name>
<cmt>s</cmt>
<desc>Mont-Saint-André Chemin n°9 Rue du Gestiaux</desc>
<link href="https://chemins.be/montsaintandre/chemin/9"/><trkseg>
<trkpt lat="50.659355" lon="4.848323"><time>2026-05-09T18:26:58Z</time></trkpt>
<trkpt lat="50.661028" lon="4.847165"><time>2026-05-09T18:36:58Z</time></trkpt>
<trkpt lat="50.662264" lon="4.846920"><time>2026-05-09T18:46:58Z</time></trkpt>
</trkseg></trk>
<trk>
<name>brmma9</name>
<cmt>v</cmt>
<desc>Mont-Saint-André Chemin n°9 Rue du Gestiaux</desc>
<link href="https://chemins.be/montsaintandre/chemin/9"/><trkseg>
<trkpt lat="50.662264" lon="4.846920"><time>2026-05-09T18:46:58Z</time></trkpt>
<trkpt lat="50.662760" lon="4.846821"><time>2026-05-09T18:56:58Z</time></trkpt>
</trkseg>
</trk>
<trk>
<name>brmmai1</name>
<cmt>q</cmt>
<desc>Mont-Saint-André Sentier n°i1 </desc>
<link href="https://chemins.be/montsaintandre/sentier/i1"/><trkseg>
<trkpt lat="50.655680" lon="4.870521"><time>2026-05-09T17:36:58Z</time></trkpt>
<trkpt lat="50.657559" lon="4.868405"><time>2026-05-09T17:46:58Z</time></trkpt>
</trkseg>
</trk>
<trk>
<name>brmmai2</name>
<cmt>v</cmt>
<desc>Mont-Saint-André Sentier n°i2 </desc>
<link href="https://chemins.be/montsaintandre/sentier/i2"/><trkseg>
<trkpt lat="50.657665" lon="4.868122"><time>2026-05-09T17:36:58Z</time></trkpt>
<trkpt lat="50.657530" lon="4.868350"><time>2026-05-09T17:46:58Z</time></trkpt>
</trkseg>
</trk>
<trk>
<name>brmmap1</name>
<cmt>r</cmt>
<desc>Mont-Saint-André Chemin particulier n°p1 Rue Petite Coyarde</desc>
<link href="https://chemins.be/montsaintandre/chemin/p1"/><trkseg>
<trkpt lat="50.657250" lon="4.865569"><time>2026-05-09T17:36:58Z</time></trkpt>
<trkpt lat="50.656285" lon="4.866814"><time>2026-05-09T17:46:58Z</time></trkpt>
</trkseg>
</trk>
</gpx>